Time;durP1;ratioP1;P1;durP2;ratioP2;P2;SDS_P1;SDS_P2;PMS_P1;PMS_P2;Temp;Humidity;BMP_temperature;BMP_pressure;BME280_temperature;BME280_humidity;BME280_pressure;Samples;Min_cycle;Max_cycle;Signal;HPM_P1;HPM_P2
2021/01/11 00:00:27;;;;;;;22.85;9.13;;;5.00;99.90;;;;;;5055578;28;20036;-68
2021/01/11 00:03:05;;;;;;;;;;;5.00;99.90;;;;;;5053046;28;20076;-68
2021/01/11 00:05:33;;;;;;;16.42;6.78;;;5.00;99.90;;;;;;5070703;28;20386;-68
2021/01/11 00:08:06;;;;;;;21.95;9.05;;;5.10;99.90;;;;;;5060076;28;20127;-68
2021/01/11 00:10:33;;;;;;;27.45;9.93;;;5.10;99.90;;;;;;5065362;28;20062;-68
2021/01/11 00:13:15;;;;;;;25.23;10.95;;;5.10;99.90;;;;;;5074508;28;20102;-68
2021/01/11 00:16:15;;;;;;;26.13;10.95;;;5.00;99.90;;;;;;5054789;28;20050;-68
2021/01/11 00:18:56;;;;;;;22.50;9.75;;;5.10;99.90;;;;;;5043289;28;20083;-67
2021/01/11 00:25:34;;;;;;;23.33;9.70;;;5.10;99.90;;;;;;5041367;28;20040;-68
2021/01/11 00:28:04;;;;;;;25.38;10.15;;;5.10;99.90;;;;;;5049423;28;20473;-68
2021/01/11 00:38:04;;;;;;;17.75;7.70;;;5.10;99.90;;;;;;5059062;28;20035;-68
2021/01/11 00:40:36;;;;;;;22.05;8.98;;;5.10;99.90;;;;;;5068702;28;20085;-68
2021/01/11 00:43:04;;;;;;;22.25;10.15;;;5.10;99.90;;;;;;5073873;28;20143;-68
2021/01/11 00:45:54;;;;;;;24.25;10.93;;;5.10;99.90;;;;;;5061726;28;20075;-68
2021/01/11 00:48:45;;;;;;;25.98;9.88;;;5.10;99.90;;;;;;5061747;28;20179;-68
2021/01/11 00:55:33;;;;;;;20.58;9.32;;;5.10;99.90;;;;;;5060301;28;20139;-68
2021/01/11 00:58:05;;;;;;;21.15;9.80;;;5.10;99.90;;;;;;5065504;28;20058;-68
2021/01/11 01:00:33;;;;;;;25.67;10.70;;;5.20;99.90;;;;;;5058413;28;20163;-68
2021/01/11 01:03:04;;;;;;;27.05;10.65;;;5.10;99.90;;;;;;5068751;28;20119;-68
2021/01/11 01:05:36;;;;;;;22.98;9.75;;;5.20;99.90;;;;;;5071446;28;20094;-68
2021/01/11 01:08:04;;;;;;;20.23;9.23;;;5.20;99.90;;;;;;5058872;28;20431;-68
2021/01/11 01:10:34;;;;;;;24.25;10.38;;;5.20;99.90;;;;;;5066047;28;20416;-68
2021/01/11 01:13:04;;;;;;;25.02;10.40;;;5.20;99.90;;;;;;5033537;28;20037;-68
2021/01/11 01:15:36;;;;;;;20.50;10.52;;;5.20;99.90;;;;;;5072061;28;20040;-68
2021/01/11 01:18:04;;;;;;;20.58;9.95;;;5.20;99.90;;;;;;5073475;28;20044;-68
2021/01/11 01:20:36;;;;;;;21.92;9.85;;;5.20;99.90;;;;;;5058112;28;20503;-68
2021/01/11 01:23:04;;;;;;;23.73;10.30;;;5.20;99.90;;;;;;5069361;28;20047;-68
2021/01/11 01:25:34;;;;;;;25.90;10.88;;;5.20;99.90;;;;;;5032123;28;20088;-68
2021/01/11 01:28:06;;;;;;;19.88;10.20;;;5.30;99.90;;;;;;5061974;28;20044;-68
2021/01/11 01:30:38;;;;;;;26.95;11.13;;;5.20;99.90;;;;;;5048805;28;20049;-68
2021/01/11 01:33:31;;;;;;;21.38;10.20;;;5.10;99.90;;;;;;5061710;28;20502;-68
2021/01/11 01:36:18;;;;;;;23.27;9.75;;;5.10;99.90;;;;;;5063893;28;20425;-68
2021/01/11 01:43:04;;;;;;;25.23;11.05;;;5.10;99.90;;;;;;5037667;28;20083;-68
2021/01/11 01:45:36;;;;;;;23.90;11.27;;;5.10;99.90;;;;;;5033685;28;20053;-68
2021/01/11 01:48:06;;;;;;;28.30;11.80;;;5.10;99.90;;;;;;5067224;28;20040;-68
2021/01/11 01:50:36;;;;;;;29.75;11.65;;;5.10;99.90;;;;;;5065538;28;20045;-68
2021/01/11 01:53:05;;;;;;;23.13;10.70;;;5.10;99.90;;;;;;5073351;28;20446;-68
2021/01/11 01:55:37;;;;;;;29.40;12.30;;;5.10;99.90;;;;;;5064498;28;20045;-68
2021/01/11 01:58:08;;;;;;;26.52;11.27;;;5.10;99.90;;;;;;5033062;28;20052;-68
2021/01/11 02:00:34;;;;;;;24.35;11.90;;;5.00;99.90;;;;;;5032947;28;20046;-68
2021/01/11 02:03:07;;;;;;;26.42;11.65;;;5.00;99.90;;;;;;5033000;28;20048;-68
2021/01/11 02:05:34;;;;;;;23.55;10.02;;;4.90;99.90;;;;;;5072509;28;20070;-68
2021/01/11 02:15:56;;;;;;;27.30;10.80;;;5.00;99.90;;;;;;5067866;28;20503;-68
2021/01/11 02:18:59;;;;;;;20.95;10.30;;;5.00;99.90;;;;;;5038412;28;20123;-68
2021/01/11 02:25:42;;;;;;;25.33;11.27;;;4.90;99.90;;;;;;5060756;28;20047;-68
2021/01/11 02:28:54;;;;;;;24.33;9.82;;;4.90;99.90;;;;;;5073137;28;20476;-68
2021/01/11 02:35:43;;;;;;;19.98;9.10;;;4.90;99.90;;;;;;5056130;28;20508;-67
2021/01/11 02:38:10;;;;;;;19.50;9.18;;;4.90;99.90;;;;;;5056254;28;20037;-65
2021/01/11 02:40:38;;;;;;;23.80;10.25;;;4.90;99.90;;;;;;5076466;28;20048;-68
2021/01/11 02:43:39;;;;;;;21.48;9.95;;;4.90;99.90;;;;;;5036144;28;20045;-68
2021/01/11 02:50:38;;;;;;;20.48;9.68;;;4.90;99.90;;;;;;5070610;28;20507;-67
2021/01/11 02:53:20;;;;;;;20.05;9.18;;;4.90;99.90;;;;;;5051431;28;20044;-68
2021/01/11 02:56:03;;;;;;;22.00;9.43;;;4.90;99.90;;;;;;5059072;28;20124;-68
2021/01/11 02:59:05;;;;;;;19.52;9.70;;;4.90;99.90;;;;;;5041308;28;20507;-68
2021/01/11 03:05:42;;;;;;;21.52;9.43;;;4.90;99.90;;;;;;5061019;28;20079;-67
2021/01/11 03:08:10;;;;;;;23.75;10.60;;;4.90;99.90;;;;;;5059419;28;20503;-67
2021/01/11 03:10:37;;;;;;;23.80;10.95;;;4.90;99.90;;;;;;5059443;28;20488;-67
2021/01/11 03:13:09;;;;;;;25.63;11.68;;;4.90;99.90;;;;;;5058714;28;20033;-68
2021/01/11 03:15:40;;;;;;;21.52;10.35;;;4.90;99.90;;;;;;5062247;28;20041;-68
2021/01/11 03:18:08;;;;;;;24.50;11.52;;;4.90;99.90;;;;;;5066040;28;20463;-68
2021/01/11 03:20:40;;;;;;;24.90;11.52;;;4.90;99.90;;;;;;5063678;28;20542;-68
2021/01/11 03:23:07;;;;;;;26.52;11.82;;;4.90;99.90;;;;;;5072487;28;20044;-68
2021/01/11 03:25:45;;;;;;;26.77;12.50;;;4.90;99.90;;;;;;5061978;28;20124;-68
2021/01/11 03:28:13;;;;;;;21.92;10.27;;;4.90;99.90;;;;;;5035462;28;20045;-68
2021/01/11 03:30:44;;;;;;;25.25;11.90;;;4.90;99.90;;;;;;5054668;28;20041;-69
2021/01/11 03:33:38;;;;;;;26.60;12.25;;;4.90;99.90;;;;;;5055379;28;20045;-68
2021/01/11 03:40:38;;;;;;;22.98;9.98;;;4.90;99.90;;;;;;5061391;28;20492;-67
2021/01/11 03:43:12;;;;;;;25.48;9.88;;;4.90;99.90;;;;;;5054950;28;20124;-67
2021/01/11 03:45:38;;;;;;;25.05;12.45;;;4.90;99.90;;;;;;5064176;28;20123;-68
2021/01/11 03:48:09;;;;;;;24.58;11.57;;;4.90;99.90;;;;;;5055499;28;20083;-68
2021/01/11 03:50:37;;;;;;;25.05;11.48;;;4.90;99.90;;;;;;5074527;28;20044;-68
2021/01/11 03:53:09;;;;;;;27.10;10.95;;;4.90;99.90;;;;;;5034883;28;20041;-68
2021/01/11 03:59:23;;;;;;;21.73;10.50;;;4.90;99.90;;;;;;5051881;28;20116;-68
2021/01/11 04:01:52;;;;;;;24.50;10.40;;;4.90;99.90;;;;;;5070589;28;20041;-68
2021/01/11 04:08:29;;;;;;;17.88;9.30;;;4.90;99.90;;;;;;5069912;28;20040;-68
2021/01/11 04:11:47;;;;;;;21.33;9.38;;;4.90;99.90;;;;;;5054598;28;20075;-68
2021/01/11 04:15:04;;;;;;;24.88;11.40;;;4.90;99.90;;;;;;5049059;28;20041;-68
2021/01/11 04:18:20;;;;;;;21.38;10.35;;;4.90;99.90;;;;;;5049183;28;20044;-68
2021/01/11 04:21:13;;;;;;;20.35;10.00;;;4.90;99.90;;;;;;5059222;28;20041;-68
2021/01/11 04:28:07;;;;;;;20.35;10.00;;;5.00;99.90;;;;;;5047881;28;20056;-67
2021/01/11 04:30:38;;;;;;;20.52;9.98;;;5.00;99.90;;;;;;5071269;28;20119;-68
2021/01/11 04:33:10;;;;;;;21.95;10.98;;;5.00;99.90;;;;;;5073625;28;20043;-68
2021/01/11 04:35:41;;;;;;;23.30;11.18;;;5.10;99.90;;;;;;5059762;28;20404;-68
2021/01/11 04:38:08;;;;;;;20.38;10.40;;;5.00;99.90;;;;;;5034055;28;20038;-67
2021/01/11 04:40:40;;;;;;;22.67;10.93;;;5.00;99.90;;;;;;5056294;28;20048;-67
2021/01/11 04:43:15;;;;;;;20.27;11.25;;;5.00;99.90;;;;;;5059288;28;20045;-68
2021/01/11 04:45:43;;;;;;;24.52;11.15;;;5.00;99.90;;;;;;5047319;28;20059;-68
2021/01/11 04:48:15;;;;;;;24.58;11.23;;;5.00;99.90;;;;;;5053628;28;20047;-67
2021/01/11 04:51:09;;;;;;;21.85;11.00;;;5.00;99.90;;;;;;5034601;28;20103;-68
2021/01/11 04:53:50;;;;;;;22.67;10.35;;;5.00;99.90;;;;;;5055369;28;20072;-68
2021/01/11 04:56:23;;;;;;;23.52;10.65;;;5.00;99.90;;;;;;5058671;28;20055;-67
2021/01/11 04:58:59;;;;;;;26.52;11.85;;;5.00;99.90;;;;;;5045327;28;20041;-68
2021/01/11 05:05:41;;;;;;;21.20;9.15;;;5.00;99.90;;;;;;5040979;28;20048;-68
2021/01/11 05:08:08;;;;;;;23.60;10.50;;;5.00;99.90;;;;;;5061303;28;20063;-68
2021/01/11 05:10:35;;;;;;;25.33;11.65;;;5.00;99.90;;;;;;5057490;28;20053;-68
2021/01/11 05:13:09;;;;;;;24.98;12.10;;;5.00;99.90;;;;;;5053166;28;20045;-68
2021/01/11 05:15:39;;;;;;;23.85;11.85;;;5.00;99.90;;;;;;5053396;28;20051;-68
2021/01/11 05:18:32;;;;;;;20.65;11.02;;;5.00;99.90;;;;;;5069391;28;20047;-68
2021/01/11 05:21:08;;;;;;;21.52;10.82;;;5.00;99.90;;;;;;5064964;28;20044;-68
2021/01/11 05:23:40;;;;;;;23.08;11.55;;;5.00;99.90;;;;;;5037381;28;20041;-68
2021/01/11 05:41:11;;;;;;;18.42;9.10;;;5.10;99.90;;;;;;5033009;28;20036;-68
2021/01/11 05:44:11;;;;;;;20.10;9.70;;;5.10;99.90;;;;;;5040258;28;20492;-68
2021/01/11 05:46:46;;;;;;;19.75;10.05;;;5.10;99.90;;;;;;5070607;28;20041;-68
2021/01/11 05:49:14;;;;;;;22.75;10.75;;;5.10;99.90;;;;;;5063942;28;20111;-68
2021/01/11 05:51:43;;;;;;;25.00;11.52;;;5.10;99.90;;;;;;5053296;28;20086;-68
2021/01/11 05:54:43;;;;;;;25.13;12.45;;;5.00;99.90;;;;;;5060468;28;20164;-68
2021/01/11 05:57:21;;;;;;;24.73;11.85;;;5.00;99.90;;;;;;5056872;28;20048;-68
2021/01/11 05:59:53;;;;;;;23.13;10.85;;;5.00;99.90;;;;;;5064547;28;20066;-68
2021/01/11 06:02:27;;;;;;;24.80;11.90;;;5.00;99.90;;;;;;5075971;28;20454;-68
2021/01/11 06:05:28;;;;;;;;;;;5.00;99.90;;;;;;5057275;28;20049;-68
2021/01/11 06:11:49;;;;;;;22.50;10.48;;;5.10;99.90;;;;;;5036309;28;20111;-68
2021/01/11 06:14:18;;;;;;;27.30;11.85;;;5.00;99.90;;;;;;5069257;28;20374;-68
2021/01/11 06:16:46;;;;;;;28.58;12.18;;;5.00;99.90;;;;;;5073432;28;20040;-68
2021/01/11 06:26:48;;;;;;;24.92;10.60;;;5.00;99.90;;;;;;5038535;28;20390;-68
2021/01/11 06:29:51;;;;;;;26.95;11.00;;;5.00;99.90;;;;;;5064554;28;20045;-68
2021/01/11 06:32:26;;;;;;;26.10;12.10;;;5.00;99.90;;;;;;5059675;28;20051;-68
2021/01/11 06:39:16;;;;;;;24.65;10.68;;;5.00;99.90;;;;;;5073634;28;20447;-67
2021/01/11 06:41:47;;;;;;;22.77;10.75;;;5.00;99.90;;;;;;5064736;28;20086;-68
2021/01/11 06:44:27;;;;;;;26.00;10.52;;;5.00;99.90;;;;;;5056826;28;20079;-69
2021/01/11 06:47:30;;;;;;;26.70;11.77;;;5.00;99.90;;;;;;5063537;28;20036;-69
2021/01/11 06:54:20;;;;;;;24.48;10.57;;;5.00;99.90;;;;;;5070514;28;20091;-68
2021/01/11 06:56:47;;;;;;;27.55;11.75;;;5.00;99.90;;;;;;5053001;28;20589;-68
2021/01/11 06:59:23;;;;;;;29.17;13.55;;;5.00;99.90;;;;;;5062373;28;20047;-68
2021/01/11 07:02:19;;;;;;;27.13;12.52;;;5.00;99.90;;;;;;5058080;28;20128;-67
2021/01/11 07:09:19;;;;;;;25.50;11.93;;;4.90;99.90;;;;;;5066536;28;20067;-68
2021/01/11 07:11:50;;;;;;;24.08;10.55;;;5.00;99.90;;;;;;5062759;28;20147;-69
2021/01/11 07:14:47;;;;;;;26.63;11.75;;;4.90;99.90;;;;;;5064663;28;20047;-69
2021/01/11 07:17:48;;;;;;;27.38;12.52;;;5.00;99.90;;;;;;5057365;28;20072;-69
2021/01/11 07:20:40;;;;;;;23.02;11.27;;;5.00;99.90;;;;;;5024843;28;20116;-69
2021/01/11 07:26:50;;;;;;;22.27;9.85;;;5.00;99.90;;;;;;5029085;28;20068;-69
2021/01/11 07:29:18;;;;;;;25.15;11.82;;;4.90;99.90;;;;;;5028141;28;20080;-68
2021/01/11 07:31:51;;;;;;;23.15;11.73;;;5.00;99.90;;;;;;5031461;28;20052;-68
2021/01/11 07:34:23;;;;;;;25.83;11.10;;;5.00;99.90;;;;;;5015540;28;20529;-68
2021/01/11 07:36:55;;;;;;;27.55;10.90;;;5.00;99.90;;;;;;5034578;28;20066;-68
2021/01/11 07:39:30;;;;;;;31.55;13.07;;;5.00;99.90;;;;;;5066853;28;20083;-67
2021/01/11 07:41:59;;;;;;;32.10;12.57;;;5.00;99.90;;;;;;5057985;28;20404;-69
2021/01/11 07:44:39;;;;;;;27.00;11.38;;;5.00;99.90;;;;;;5064542;28;20048;-68
2021/01/11 07:47:19;;;;;;;28.92;12.48;;;5.00;99.90;;;;;;5068684;28;20044;-68
2021/01/11 07:50:03;;;;;;;29.40;12.60;;;5.00;99.90;;;;;;5059459;28;20067;-67
2021/01/11 07:52:35;;;;;;;27.65;12.25;;;4.90;99.90;;;;;;5074667;28;20424;-67
2021/01/11 07:55:07;;;;;;;26.73;11.88;;;5.00;99.90;;;;;;5040682;28;20045;-65
2021/01/11 07:57:45;;;;;;;30.98;13.00;;;4.90;99.90;;;;;;5070987;28;20044;-67
2021/01/11 08:00:34;;;;;;;28.25;11.75;;;5.00;99.90;;;;;;5073349;28;20032;-65
2021/01/11 08:06:57;;;;;;;22.95;10.70;;;4.90;99.90;;;;;;5054232;28;20043;-66
2021/01/11 08:09:29;;;;;;;28.35;11.80;;;5.00;99.90;;;;;;5033603;28;20179;-67
2021/01/11 08:12:16;;;;;;;29.93;12.10;;;5.00;99.90;;;;;;5046892;28;20045;-68
2021/01/11 08:22:02;;;;;;;26.52;11.32;;;5.00;99.90;;;;;;5058442;28;20041;-67
2021/01/11 08:25:00;;;;;;;28.45;11.60;;;5.00;99.90;;;;;;5071817;28;20052;-67
2021/01/11 08:27:40;;;;;;;24.48;10.95;;;4.90;99.90;;;;;;5058550;28;20048;-66
2021/01/11 08:30:11;;;;;;;30.25;12.35;;;5.00;99.90;;;;;;5044337;28;20041;-66
2021/01/11 08:32:39;;;;;;;25.70;12.60;;;5.00;99.90;;;;;;5046187;28;20480;-67
2021/01/11 08:35:15;;;;;;;32.85;12.30;;;4.90;99.90;;;;;;5068340;28;20052;-66
2021/01/11 08:37:44;;;;;;;31.67;12.43;;;4.90;99.90;;;;;;5058319;28;20040;-66
2021/01/11 08:44:30;;;;;;;24.45;9.82;;;4.90;99.90;;;;;;5073527;28;20035;-68
2021/01/11 08:47:28;;;;;;;22.95;10.70;;;4.90;99.90;;;;;;5035362;28;20049;-65
2021/01/11 08:54:18;;;;;;;25.15;10.40;;;4.90;99.90;;;;;;5058548;28;20494;-66
2021/01/11 08:56:48;;;;;;;24.48;10.25;;;5.00;99.90;;;;;;5033895;28;20107;-66
2021/01/11 08:59:18;;;;;;;24.88;10.93;;;5.00;99.90;;;;;;5065064;28;20067;-66
2021/01/11 09:01:50;;;;;;;25.60;10.00;;;4.90;99.90;;;;;;5063470;28;20077;-66
2021/01/11 09:04:32;;;;;;;25.58;11.40;;;5.00;99.90;;;;;;5054110;28;20048;-65
2021/01/11 09:14:18;;;;;;;21.33;9.27;;;5.00;99.90;;;;;;5063390;28;20063;-66
2021/01/11 09:16:56;;;;;;;27.38;11.75;;;5.10;99.90;;;;;;5073538;28;20047;-65
2021/01/11 09:19:23;;;;;;;22.85;10.40;;;5.00;99.90;;;;;;5073162;28;20403;-65
2021/01/11 09:22:28;;;;;;;24.55;11.13;;;5.00;99.90;;;;;;5073435;28;20036;-64
2021/01/11 09:24:54;;;;;;;20.23;9.38;;;5.00;99.90;;;;;;5043308;28;20403;-64
2021/01/11 09:31:48;;;;;;;22.55;10.85;;;5.00;99.90;;;;;;5055072;28;20051;-65
2021/01/11 09:34:17;;;;;;;22.77;10.80;;;5.10;99.90;;;;;;5062570;28;20068;-65
2021/01/11 09:36:49;;;;;;;23.95;11.07;;;5.10;99.90;;;;;;5050161;28;20041;-65
2021/01/11 09:39:27;;;;;;;24.45;11.65;;;5.10;99.90;;;;;;5034134;28;20045;-65
2021/01/11 09:42:12;;;;;;;24.95;11.45;;;5.10;99.90;;;;;;5057145;28;20041;-66
2021/01/11 09:44:41;;;;;;;22.65;11.15;;;5.10;99.90;;;;;;5036442;28;20052;-67
2021/01/11 09:47:25;;;;;;;24.75;10.18;;;5.10;99.90;;;;;;5066807;28;20045;-66
2021/01/11 09:49:56;;;;;;;21.60;10.77;;;5.10;99.90;;;;;;5039063;28;20049;-66
2021/01/11 09:52:25;;;;;;;19.33;10.65;;;5.10;99.90;;;;;;5043807;28;20079;-65
2021/01/11 10:02:18;;;;;;;16.48;7.75;;;5.20;99.90;;;;;;5040941;28;20074;-65
2021/01/11 10:04:55;;;;;;;22.65;11.15;;;5.20;99.90;;;;;;5061106;28;20049;-66
2021/01/11 10:07:27;;;;;;;18.42;9.48;;;5.20;99.90;;;;;;5043197;28;20473;-65
2021/01/11 10:10:05;;;;;;;19.30;9.77;;;5.20;99.90;;;;;;5072962;28;20048;-65
2021/01/11 10:16:44;;;;;;;18.75;9.80;;;5.30;99.90;;;;;;5053124;28;20052;-67
2021/01/11 10:19:41;;;;;;;22.55;9.43;;;5.20;99.90;;;;;;5052864;28;20041;-65
2021/01/11 10:22:14;;;;;;;16.27;8.50;;;5.30;99.90;;;;;;5069817;28;20404;-66
2021/01/11 10:24:55;;;;;;;17.90;8.52;;;5.30;99.90;;;;;;5058596;28;20480;-66
2021/01/11 10:27:37;;;;;;;16.88;8.35;;;5.50;99.90;;;;;;5056348;28;20041;-64
2021/01/11 10:30:05;;;;;;;17.25;7.50;;;5.30;99.90;;;;;;5071099;28;20033;-66
2021/01/11 10:32:31;;;;;;;13.45;6.78;;;5.40;99.90;;;;;;5057369;28;20098;-65
2021/01/11 10:39:09;;;;;;;14.13;7.30;;;5.50;99.90;;;;;;5060588;28;20040;-67
2021/01/11 10:41:36;;;;;;;18.60;7.45;;;5.50;99.90;;;;;;5069914;28;20040;-65
2021/01/11 10:44:06;;;;;;;16.17;8.52;;;5.50;99.90;;;;;;5057283;28;20417;-65
2021/01/11 10:46:37;;;;;;;14.27;6.80;;;5.50;99.90;;;;;;5070097;28;20097;-65
2021/01/11 10:49:09;;;;;;;17.50;7.53;;;5.50;99.90;;;;;;5060710;28;20045;-65
2021/01/11 10:52:30;;;;;;;17.48;7.47;;;5.60;99.90;;;;;;5061206;28;20048;-65
2021/01/11 10:55:10;;;;;;;13.90;6.75;;;5.60;99.90;;;;;;5064081;28;20041;-65
2021/01/11 10:57:42;;;;;;;12.10;6.18;;;5.60;99.90;;;;;;5065362;28;20381;-66
2021/01/11 11:00:11;;;;;;;14.55;6.95;;;5.60;99.90;;;;;;5072406;28;20033;-65
2021/01/11 11:02:55;;;;;;;15.45;6.38;;;5.70;99.90;;;;;;5059942;28;20044;-66
2021/01/11 11:09:04;;;;;;;13.18;6.40;;;5.80;99.90;;;;;;5059716;28;20051;-65
2021/01/11 11:11:36;;;;;;;13.45;6.57;;;5.80;99.90;;;;;;5067104;28;20041;-65
2021/01/11 11:14:26;;;;;;;13.88;6.15;;;5.90;99.90;;;;;;5054005;28;20041;-67
2021/01/11 11:17:23;;;;;;;14.55;5.93;;;5.90;99.90;;;;;;5038407;28;20069;-67
2021/01/11 11:23:32;;;;;;;15.55;5.28;;;5.90;99.90;;;;;;5065760;28;20039;-66
2021/01/11 11:26:35;;;;;;;11.52;5.68;;;6.00;99.90;;;;;;5062162;28;20049;-65
2021/01/11 11:29:07;;;;;;;10.70;5.47;;;6.00;99.90;;;;;;5049532;28;20041;-65
2021/01/11 11:31:39;;;;;;;14.32;6.43;;;6.00;99.90;;;;;;5059411;28;20040;-65
2021/01/11 11:34:24;;;;;;;10.93;5.13;;;6.10;99.90;;;;;;5053287;28;20094;-66
2021/01/11 11:37:19;;;;;;;13.57;5.70;;;6.10;99.90;;;;;;5037667;28;20462;-65
2021/01/11 11:39:52;;;;;;;11.88;6.55;;;6.00;99.90;;;;;;5045514;28;20059;-66
2021/01/11 11:46:35;;;;;;;13.25;5.72;;;6.10;99.90;;;;;;5056597;28;20040;-66
2021/01/11 11:49:07;;;;;;;9.32;4.95;;;6.10;99.90;;;;;;5033802;28;20042;-66
2021/01/11 11:51:47;;;;;;;15.35;6.60;;;6.10;99.90;;;;;;5055401;28;20037;-67
2021/01/11 11:54:22;;;;;;;11.73;6.53;;;6.00;99.90;;;;;;5055292;28;20457;-66
2021/01/11 12:04:08;;;;;;;11.52;5.00;;;6.10;99.90;;;;;;5054610;28;20041;-68
2021/01/11 12:06:46;;;;;;;11.85;6.35;;;6.00;99.90;;;;;;5060065;28;20119;-67
2021/01/11 12:09:13;;;;;;;10.32;5.75;;;6.00;99.90;;;;;;5059184;28;20111;-67
2021/01/11 12:12:16;;;;;;;16.15;6.90;;;6.00;99.90;;;;;;5061977;28;20480;-66
2021/01/11 12:14:46;;;;;;;10.55;6.13;;;6.00;99.90;;;;;;5066100;28;20051;-66
2021/01/11 12:17:18;;;;;;;13.20;5.88;;;6.00;99.90;;;;;;5054909;28;20037;-66
2021/01/11 12:19:50;;;;;;;11.23;5.18;;;6.00;99.90;;;;;;5054056;28;20036;-66
2021/01/11 12:22:17;;;;;;;11.23;5.88;;;6.00;99.90;;;;;;5064782;28;20052;-64
2021/01/11 12:24:43;;;;;;;14.48;5.85;;;6.00;99.90;;;;;;5058871;28;20052;-66
2021/01/11 12:27:15;;;;;;;10.82;4.90;;;6.00;99.90;;;;;;5069928;28;20036;-66
2021/01/11 12:29:43;;;;;;;12.80;6.07;;;6.00;99.90;;;;;;5059438;28;20040;-67
2021/01/11 12:32:09;;;;;;;11.90;5.93;;;6.00;99.90;;;;;;5061452;28;20037;-67
2021/01/11 12:34:44;;;;;;;14.60;6.25;;;5.90;99.90;;;;;;5054250;28;20041;-67
2021/01/11 12:37:17;;;;;;;10.98;5.93;;;5.90;99.90;;;;;;5054315;28;20052;-67
2021/01/11 12:39:44;;;;;;;10.88;5.60;;;5.90;99.90;;;;;;5068815;28;20041;-68
2021/01/11 12:42:16;;;;;;;14.75;6.70;;;5.90;99.90;;;;;;5059097;28;20045;-67
2021/01/11 12:44:44;;;;;;;12.50;6.50;;;5.90;99.90;;;;;;5046746;28;20045;-66
2021/01/11 12:47:35;;;;;;;10.48;5.95;;;5.90;99.90;;;;;;5055696;28;20079;-67
2021/01/11 12:50:18;;;;;;;9.85;5.68;;;5.90;99.90;;;;;;5037183;28;20068;-68
2021/01/11 12:52:55;;;;;;;13.35;6.20;;;5.90;99.90;;;;;;5054520;28;20159;-66
2021/01/11 12:55:30;;;;;;;14.32;6.05;;;5.80;99.90;;;;;;5041972;28;20388;-67
2021/01/11 13:02:18;;;;;;;10.88;4.80;;;5.90;99.90;;;;;;5051809;28;20032;-67
2021/01/11 13:04:52;;;;;;;9.10;4.65;;;5.90;99.90;;;;;;5047217;28;20041;-68
2021/01/11 13:15:06;;;;;;;8.57;3.72;;;5.90;99.90;;;;;;5070140;28;20047;-68
2021/01/11 13:17:50;;;;;;;6.90;3.53;;;5.90;99.90;;;;;;5070095;28;20052;-66
2021/01/11 13:20:27;;;;;;;;;;;5.90;99.90;;;;;;5060743;28;20048;-65
2021/01/11 13:22:59;;;;;;;6.47;3.42;;;5.90;99.90;;;;;;5061302;28;19921;-65
2021/01/11 13:25:27;;;;;;;9.45;3.60;;;5.90;99.90;;;;;;5057799;28;20044;-65
2021/01/11 13:28:13;;;;;;;6.20;3.33;;;5.90;99.90;;;;;;5043840;28;20056;-65
2021/01/11 13:34:46;;;;;;;7.90;3.33;;;6.00;99.90;;;;;;5072812;28;20089;-67
2021/01/11 13:37:14;;;;;;;7.88;3.35;;;6.00;99.90;;;;;;5073226;28;20381;-67
2021/01/11 13:39:46;;;;;;;8.70;3.80;;;6.00;99.90;;;;;;5073025;28;20057;-67
2021/01/11 13:42:18;;;;;;;8.02;3.25;;;5.90;99.90;;;;;;5053565;28;20396;-66
2021/01/11 13:44:45;;;;;;;6.85;3.33;;;5.90;99.90;;;;;;5053149;28;20124;-67
2021/01/11 13:47:18;;;;;;;6.72;3.38;;;6.00;99.90;;;;;;5054860;28;20049;-65
2021/01/11 13:49:45;;;;;;;7.78;3.08;;;6.00;99.90;;;;;;5033231;28;20048;-66
2021/01/11 13:52:17;;;;;;;5.53;2.70;;;5.90;99.90;;;;;;5033155;28;20041;-65
2021/01/11 13:55:29;;;;;;;5.20;2.83;;;5.90;99.90;;;;;;5063067;28;20044;-65
2021/01/11 13:58:23;;;;;;;8.10;2.85;;;5.90;99.90;;;;;;5044503;28;20037;-66
2021/01/11 14:04:46;;;;;;;5.45;2.75;;;5.90;99.90;;;;;;5071201;28;20439;-66
2021/01/11 14:07:28;;;;;;;8.05;2.85;;;5.90;99.90;;;;;;5067466;28;20115;-67
2021/01/11 14:10:26;;;;;;;10.45;3.47;;;5.90;99.90;;;;;;5071515;28;20044;-68
2021/01/11 14:13:01;;;;;;;8.00;3.35;;;5.90;99.90;;;;;;5045721;28;20040;-66
2021/01/11 14:15:28;;;;;;;5.75;3.40;;;5.90;99.90;;;;;;5046899;28;20053;-67
2021/01/11 14:22:16;;;;;;;5.40;2.55;;;5.90;99.90;;;;;;5055112;28;20032;-66
2021/01/11 14:24:42;;;;;;;5.82;2.78;;;5.90;99.90;;;;;;5065287;28;20050;-66
2021/01/11 14:27:55;;;;;;;9.32;3.10;;;6.00;99.90;;;;;;5072869;28;20123;-66
2021/01/11 14:30:26;;;;;;;6.50;2.70;;;5.90;99.90;;;;;;5076405;28;20503;-67
2021/01/11 14:32:54;;;;;;;7.43;2.95;;;5.90;99.90;;;;;;5075152;28;20040;-67
2021/01/11 14:35:26;;;;;;;7.57;3.17;;;5.90;99.90;;;;;;5071584;28;20400;-67
2021/01/11 14:37:56;;;;;;;7.05;2.85;;;5.90;99.90;;;;;;5054419;28;20460;-67
2021/01/11 14:40:28;;;;;;;5.85;2.47;;;5.90;99.90;;;;;;5036371;28;20053;-68
2021/01/11 14:43:00;;;;;;;7.43;2.40;;;5.90;99.90;;;;;;5056201;28;20041;-67
2021/01/11 14:45:39;;;;;;;7.90;2.88;;;5.90;99.90;;;;;;5059945;28;20133;-67
2021/01/11 14:52:08;;;;;;;9.20;4.03;;;5.90;99.90;;;;;;5059342;28;20095;-65
2021/01/11 14:55:15;;;;;;;7.82;3.60;;;5.90;99.90;;;;;;5073708;28;20041;-66
2021/01/11 14:58:12;;;;;;;8.05;2.50;;;5.90;99.90;;;;;;5075341;28;20041;-65
2021/01/11 15:00:42;;;;;;;6.15;2.08;;;5.90;99.90;;;;;;5055791;28;20136;-67
2021/01/11 15:03:11;;;;;;;6.25;2.55;;;5.90;99.90;;;;;;5070984;28;20484;-65
2021/01/11 15:05:47;;;;;;;5.97;2.42;;;5.90;99.90;;;;;;5075598;28;20466;-65
2021/01/11 15:08:12;;;;;;;5.97;2.33;;;5.90;99.90;;;;;;5071503;28;20047;-65
2021/01/11 15:10:39;;;;;;;4.70;2.25;;;5.90;99.90;;;;;;5076238;28;20044;-65
2021/01/11 15:13:12;;;;;;;7.75;2.35;;;5.90;99.90;;;;;;5070222;28;20048;-67
2021/01/11 15:15:40;;;;;;;8.65;2.17;;;5.80;99.90;;;;;;5028147;28;20466;-67
2021/01/11 15:18:07;;;;;;;3.85;2.00;;;5.90;99.90;;;;;;5064419;28;20439;-67
2021/01/11 15:20:34;;;;;;;5.95;2.30;;;5.90;99.90;;;;;;5070453;28;20102;-65
2021/01/11 15:23:09;;;;;;;5.35;2.40;;;5.90;99.90;;;;;;5068811;28;20069;-66
2021/01/11 15:25:37;;;;;;;4.47;1.92;;;5.90;99.90;;;;;;5074788;28;20124;-65
2021/01/11 15:28:09;;;;;;;5.93;2.05;;;5.90;99.90;;;;;;5061958;28;20086;-66
2021/01/11 15:30:47;;;;;;;5.68;2.47;;;5.80;99.90;;;;;;5055873;28;20041;-66
2021/01/11 15:33:26;;;;;;;6.15;2.22;;;5.90;99.90;;;;;;5060187;28;20112;-67
2021/01/11 15:35:56;;;;;;;4.65;2.08;;;5.90;99.90;;;;;;5036875;28;20037;-66
2021/01/11 15:45:40;;;;;;;5.78;2.40;;;5.90;99.90;;;;;;5060397;28;20041;-66
2021/01/11 15:48:08;;;;;;;5.60;2.05;;;5.90;99.90;;;;;;5049363;28;20054;-66
2021/01/11 15:50:40;;;;;;;3.65;1.83;;;5.90;99.90;;;;;;5071245;28;20041;-67
2021/01/11 15:53:08;;;;;;;7.68;2.13;;;5.90;99.90;;;;;;5073216;28;20091;-66
2021/01/11 15:55:40;;;;;;;7.82;2.05;;;5.90;99.90;;;;;;5067361;28;20040;-66
2021/01/11 15:58:12;;;;;;;6.88;1.65;;;5.90;99.90;;;;;;5057859;28;20094;-66
2021/01/11 16:00:38;;;;;;;6.93;1.70;;;5.90;99.90;;;;;;5065183;28;20047;-67
2021/01/11 16:03:11;;;;;;;5.72;1.55;;;6.00;99.90;;;;;;5063368;28;20124;-66
2021/01/11 16:05:41;;;;;;;4.53;1.50;;;6.00;99.90;;;;;;5074200;28;20440;-68
2021/01/11 16:08:08;;;;;;;6.57;1.30;;;6.00;99.90;;;;;;5064225;28;20055;-68
2021/01/11 16:10:46;;;;;;;8.30;1.65;;;6.00;99.90;;;;;;5074137;28;20119;-67
2021/01/11 16:13:39;;;;;;;4.22;1.70;;;5.90;99.90;;;;;;5068325;28;20388;-67
2021/01/11 16:16:12;;;;;;;3.40;1.77;;;6.00;99.90;;;;;;5065379;28;20394;-65
2021/01/11 16:18:57;;;;;;;4.13;1.42;;;6.00;99.90;;;;;;5068291;28;20137;-70
2021/01/11 16:21:31;;;;;;;5.25;1.63;;;6.10;99.90;;;;;;5056914;28;20104;-70
2021/01/11 16:24:07;;;;;;;4.38;1.58;;;6.00;99.90;;;;;;5069474;28;20041;-68
2021/01/11 16:30:52;;;;;;;10.02;1.60;;;6.10;99.90;;;;;;5062190;28;20490;-71
2021/01/11 16:33:21;;;;;;;2.80;1.13;;;6.10;99.90;;;;;;5054364;28;20052;-72
2021/01/11 16:35:48;;;;;;;3.20;1.38;;;6.20;99.90;;;;;;5058936;28;20497;-72
2021/01/11 16:38:29;;;;;;;3.42;1.38;;;6.10;99.90;;;;;;5068936;28;20049;-70
2021/01/11 16:41:00;;;;;;;4.57;1.60;;;6.20;99.90;;;;;;5058210;28;20041;-71
2021/01/11 16:43:41;;;;;;;4.13;1.70;;;6.00;99.90;;;;;;5034067;28;20048;-71
2021/01/11 16:46:47;;;;;;;5.65;1.58;;;6.20;99.90;;;;;;5055659;28;20562;-68
2021/01/11 16:49:17;;;;;;;8.60;1.73;;;6.20;99.90;;;;;;5040751;28;20045;-68
2021/01/11 16:55:34;;;;;;;6.00;2.10;;;6.20;99.80;;;;;;5058482;28;20075;-70
2021/01/11 16:58:03;;;;;;;4.70;1.60;;;6.20;99.90;;;;;;5048114;28;20103;-70
2021/01/11 17:00:33;;;;;;;5.95;1.83;;;6.30;99.80;;;;;;5050019;28;20037;-68
2021/01/11 17:03:06;;;;;;;7.10;1.60;;;6.20;99.70;;;;;;5033679;28;20103;-67
2021/01/11 17:05:33;;;;;;;4.85;1.80;;;6.20;99.90;;;;;;5071941;28;20056;-68
2021/01/11 17:08:08;;;;;;;4.10;1.42;;;6.20;99.70;;;;;;5033967;28;20050;-67